Terminal Aerodrome Forecast
Issued by NWS

Home | Current Version | Previous Version | Text Only | Print | Product List | Glossary On
Versions: 1 2 3 4 5 6 7 8 9 10 11 12 13 14 15 16 17 18 19 20 21 22 23 24 25 26 27 28 29 30 31 32 33 34 35 36 37 38 39 40 41 42
725
FTUS43 KDMX 132338
TAFMCW
TAF
KMCW 132338Z 1400/1424 14012KT P6SM BKN050
     FM140600 13014G20KT 3SM -SN OVC020
     FM141000 14016G23KT 1SM -SN OVC010
     FM141600 13013KT 5SM -SN OVC015
     FM142000 13010KT 6SM BR OVC025=

USA.gov is the U.S. government's official web portal to all federal, state and local government web resources and services.